Fountain, CO (80817)

4:02 PM MDT on September 30, 2014 (GMT -0600)
Widefield-Near-King-Elementary | Change Station
CLOSE
Current Station
Personal Weather Station
Location: Widefield, CO
Elevation: 5880 ft
Nearby Weather Stations

Elev 5880 ft 38.74 °N, 104.70 °W | Updated 22 minutes ago

Clear
Clear
70.8 °F
Feels Like 75 °F
N
1.0
Wind Variable Wind from SE
Gusts 4.0 mph

Today
High -- | Low -- °F
--% Chance of Precip.
Yesterday
High -- | Low -- °F
Precip. -- in
6:53 AM 6:43 PM
Waxing Crescent, 40% visible
Pressure 29.75 in
Visibility 10.0 miles
Clouds Overcast 9500 ft
Heat Index 75 °F
Dew Point 33 °F
Humidity 25%
Rainfall 0.00 in
Snow Depth 2 in , 3 in , 4 in
UV 1 out of 12
Pollen 4.00 out of 12
Ozone Good
PM2.5 Good
Flu Activity Not available.
METAR KFCS 302158Z AUTO 10005KT 10SM OVC095 20/M01 A2982 RMK AO2 SLP072 T01961008

More Conditions Fewer Conditions

Pressure 29.75 in
Visibility 10.0 miles
Clouds Overcast 9500 ft
Heat Index 75 °F
Dew Point 33 °F
Humidity 25%
Rainfall 0.00 in
Snow Depth 2 in , 3 in , 4 in
UV 1 out of 12
Pollen 4.00 out of 12
Ozone Good
PM2.5 Good
Flu Activity Not available.
METAR KFCS 302158Z AUTO 10005KT 10SM OVC095 20/M01 A2982 RMK AO2 SLP072 T01961008

More Conditions Fewer Conditions

10-Day Weather Forecast

Almanac

Astronomy

Sep. 30, 2014 Rise Set
Actual Time 6:53 AM MDT 6:43 PM MDT
Civil Twilight 6:27 AM MDT 7:09 PM MDT
Nautical Twilight 5:56 AM MDT 7:40 PM MDT
Astronomical Twilight 5:25 AM MDT 8:11 PM MDT
Moon 1:01 PM MDT 11:18 PM MDT
Length of Visible Light 12h 42m
Length of Day
11h 49m
Tomorrow will be 2m 29s shorter.
Waxing Crescent, 40% of the Moon is Illuminated
Today
Waxing Crescent
Oct 1
First Quarter
Oct 8
Full
Oct 15
Last Quarter
Oct 23
New

Today's Extremes

State Highs State Lows

Community

WunderPhotos

Upload Photos

1,757,759 photos uploaded!

Nearby

Air Quality

  Air Quality AQ Index Pollutant
Yesterday Good
OZONE
Yesterday Good
PM2.5
Current Good
OZONE
Current Good
PM2.5
Tuesday Good
PM2.5
Tuesday Good
OZONE
Wednesday Good
PM2.5
Wednesday Good
OZONE

Snow Depth

Station Depth Elevation
Upper San Juan 2 in 10130 ft
Slumgullion 3 in 11440 ft
Lake Irene 4 in 10700 ft
Jackwhacker Gulch 0 in 10960 ft
Loveland Basin 0 in 11400 ft

Earthquake Activity

City Distance Mag. Time & Date
Trinidad, Colorado 114 miles 2.9 3:55 AM MDT
2014-09-30
Minimum magnitude displayed is 2.5.

Coastal Water Temperatures

Place Temperature
No Stations Reporting

Nearby Weather Stations